الصفحة الرئيسية
METAR-TAF:

METAR-TAF

مطار :

Show Low, أريزونا, الولايات المتحدة

دائرة عرض: 34-16N, خط طول: 110-00W, ارتفاع: 1954 متر

مراقبة الطقس الحالي

تاريخ ووقت الإصدار 15 دقيقة قبل الساعة 09:55UTC
رياح هادئة
درجة الحرارة 8°درجة مئوية
الرطوبة 27%
ضغط 1029 hPa
الرؤية: 16.1 كم
سماء صافية

METAR: KSOW 290955Z AUTO 00000KT 10SM CLR 08/M10 A3040 RMK AO2

زمن: 03:10 (10:10 UTC)


TAF: مفقودة

أرصاد الطقس والتوقعات من أكثر من 4000 مطار (تقارير الطقس للمطار METAR والتنبؤ بالطقس بالمطارTAF).

المحطات المتاحة هي النقط الصفراء والحمراء على الخريطة.

حرك المؤشر فوق النقطة لمعرفة اسم المحطة.

ثم انقر لمعرفة أرصاد وتوقعات الطقس.

لتغيير الخارطة: اضغط على الأزرار الخضراء مع رمز الصليب الأسود للتكبير. على الزر الأخضر مع شرطة للتصغير، أو على الأسهم الخضراء للخرائط المجاورة.


METAR-TAF: